Flight Track Log - Related Links

Times and Time Zones

All times are in EDT time to prevent confusion due to time zone crossing. See the EJA951 flight status page for this flight to view local times or setup timezone preferences in your user account.

Time Position Orientation Groundspeed Altitude Reporting Facility
EDT Latitude Longitude Course Direction KTS MPH feet Rate Location/Type
Fri 10:13:59 AM 28.4500 -81.3333 60° Northeast 164 189 900  Level Orlando TRACON
Fri 10:15:36 AM 28.5000 -81.2333 60° Northeast 271 312 4,800 1,567 Climbing Orlando TRACON
Fri 10:16:36 AM 28.5167 -81.1500 77° East 282 325 5,000 1,400 Climbing Orlando TRACON
Fri 10:17:36 AM 28.5167 -81.0667 90° East 276 318 7,600 2,764 Climbing Orlando TRACON
Fri 10:19:34 AM 28.4139 -80.9400 133° Southeast 301 346 13,200 2,427 Climbing Miami Center
Fri 10:20:34 AM 28.3431 -80.8619 136° Southeast 319 367 14,800 1,200 Climbing Miami Center
Fri 10:21:34 AM 28.2678 -80.7908 140° Southeast 367 422 15,600 1,250 Climbing Miami Center
Fri 10:22:34 AM 28.1719 -80.7028 141° Southeast 403 464 17,300 1,550 Climbing Miami Center
Fri 10:23:34 AM 28.0825 -80.6150 139° Southeast 414 476 18,700 1,350 Climbing Miami Center
Fri 10:24:34 AM 28.0014 -80.5253 136° Southeast 419 482 20,000 1,300 Climbing Miami Center
Fri 10:25:34 AM 27.9261 -80.4431 136° Southeast 419 482 21,300 1,300 Climbing Miami Center
Fri 10:26:34 AM 27.8264 -80.3364 137° Southeast 432 497 22,600 850 Climbing Miami Center
Fri 10:27:34 AM 27.7328 -80.2350 136° Southeast 445 512 23,000 200 Climbing Miami Center
Fri 10:28:34 AM 27.6328 -80.1383 139° Southeast 469 540 23,000  Level Miami Center
Fri 10:29:34 AM 27.5133 -80.0717 154° Southeast 475 547 23,000  Level Miami Center
Fri 10:30:34 AM 27.3956 -80.0147 157° South 468 539 23,000  Level Miami Center
Fri 10:31:34 AM 27.2778 -79.9553 156° South 463 533 23,000 -200 Level Miami Center
Fri 10:32:34 AM 27.1619 -79.8964 156° South 458 527 22,600 -1,050 Descending Miami Center
Fri 10:33:34 AM 27.0506 -79.8350 154° Southeast 450 518 20,900 -1,650 Descending Miami Center
Fri 10:34:34 AM 26.9389 -79.7811 157° South 444 511 19,300 -1,600 Descending Miami Center
Fri 10:35:34 AM 26.8417 -79.7297 155° Southeast 433 498 17,700 -2,100 Descending Miami Center
Fri 10:36:34 AM 26.7189 -79.7058 170° South 385 443 15,100 -2,400 Descending Miami Center
Fri 10:37:34 AM 26.6369 -79.7386 200° South 363 418 12,900 -2,350 Descending Miami Center
Fri 10:38:34 AM 26.5461 -79.7828 204° Southwest 335 386 10,400 -2,480 Descending Miami Center
Fri 10:38:49 AM 26.5208 -79.7914 197° South 321 369 9,800 -2,000 Descending Miami Center
Fri 10:39:34 AM 26.4767 -79.8136 204° Southwest 313 360 8,400 -1,770 Descending Miami Center
Fri 10:39:50 AM 26.4450 -79.8314 207° Southwest 288 331 8,000 -400 Descending Miami Center
Fri 10:40:34 AM 26.3944 -79.8533 201° Southwest 295 339 8,000 -577 Level Miami Center
Fri 10:41:34 AM 26.3289 -79.8817 201° Southwest 290 334 7,000 -1,400 Descending Miami Center
Fri 10:42:34 AM 26.2511 -79.9122 199° South 285 328 5,200 -1,650 Descending Miami Center
Fri 10:42:54 AM 26.2258 -79.9208 197° South 227 261 4,800 -1,200 Descending Miami Center
Fri 10:43:34 AM 26.1883 -79.9222 182° South 257 296 4,000 -1,377 Descending Miami Center
Fri 10:43:55 AM 26.1653 -79.9217 179° South 217 250 3,400 -1,600 Descending Miami Center
Fri 10:44:34 AM 26.1300 -79.9136 168° South 231 266 2,400 -1,377 Descending Miami Center
Fri 10:44:56 AM 26.1067 -79.9269 207° Southwest 210 242 2,000 -500 Descending Miami Center
Fri 10:45:34 AM 26.0936 -79.9522 240° Southwest 181 208 1,900  Descending Miami Center
Fri 10:45:58 AM 26.0806 -79.9794 242° Southwest 182 209 2,000 100 Climbing Miami Center
Fri 10:46:34 AM 26.0736 -80.0025 251° West 170 196 2,000 -98 Level Miami Center
Fri 10:46:59 AM 26.0753 -80.0281 274° West 155 178 1,900 -558 Descending Miami Center
Fri 10:48:00 AM 26.0742 -80.0719 268° West 148 170 1,200 -683 Descending Miami Center
Fri 10:49:02 AM 26.0753 -80.1181 272° West 139 160 500 -677 Descending Miami Center
Fri 10:51:00 AM 26.0726 -80.1527 275° West  Level Estimated

Login

Don't have an account? Register now (free) for customized features, flight alerts, and more!